sensor_id;sensor_type;location;lat;lon;timestamp;temperature;humidity
70244;DHT22;57634;51.136;17.024;2023-07-29T00:00:37;20.60;70.60
70244;DHT22;57634;51.136;17.024;2023-07-29T00:03:43;20.50;70.60
70244;DHT22;57634;51.136;17.024;2023-07-29T00:06:44;20.50;70.60
70244;DHT22;57634;51.136;17.024;2023-07-29T00:09:45;20.50;70.80
70244;DHT22;57634;51.136;17.024;2023-07-29T00:12:47;20.50;70.80
70244;DHT22;57634;51.136;17.024;2023-07-29T00:15:49;20.50;70.80
70244;DHT22;57634;51.136;17.024;2023-07-29T00:18:50;20.40;70.80
70244;DHT22;57634;51.136;17.024;2023-07-29T00:21:52;20.40;70.90
70244;DHT22;57634;51.136;17.024;2023-07-29T00:25:19;20.40;71.00
70244;DHT22;57634;51.136;17.024;2023-07-29T00:28:21;20.40;71.20
70244;DHT22;57634;51.136;17.024;2023-07-29T00:31:22;20.40;71.30
70244;DHT22;57634;51.136;17.024;2023-07-29T00:34:24;20.30;71.30
70244;DHT22;57634;51.136;17.024;2023-07-29T00:37:25;20.30;71.50
70244;DHT22;57634;51.136;17.024;2023-07-29T00:40:28;20.30;71.60
70244;DHT22;57634;51.136;17.024;2023-07-29T00:43:30;20.20;71.60
70244;DHT22;57634;51.136;17.024;2023-07-29T00:46:34;20.20;71.60
70244;DHT22;57634;51.136;17.024;2023-07-29T00:49:37;20.10;71.70
70244;DHT22;57634;51.136;17.024;2023-07-29T00:52:38;20.10;71.80
70244;DHT22;57634;51.136;17.024;2023-07-29T00:55:41;20.10;71.90
70244;DHT22;57634;51.136;17.024;2023-07-29T00:58:43;20.00;71.90
70244;DHT22;57634;51.136;17.024;2023-07-29T01:02:13;20.00;71.90
70244;DHT22;57634;51.136;17.024;2023-07-29T01:05:16;20.00;72.10
70244;DHT22;57634;51.136;17.024;2023-07-29T01:08:33;20.00;72.20
70244;DHT22;57634;51.136;17.024;2023-07-29T01:14:55;19.90;72.20
70244;DHT22;57634;51.136;17.024;2023-07-29T01:18:05;19.90;72.20
70244;DHT22;57634;51.136;17.024;2023-07-29T01:21:33;19.90;72.30
70244;DHT22;57634;51.136;17.024;2023-07-29T01:24:36;19.90;72.60
70244;DHT22;57634;51.136;17.024;2023-07-29T01:27:37;19.80;72.70
70244;DHT22;57634;51.136;17.024;2023-07-29T01:30:40;19.80;72.80
70244;DHT22;57634;51.136;17.024;2023-07-29T01:33:58;19.80;73.00
70244;DHT22;57634;51.136;17.024;2023-07-29T01:36:57;19.80;73.10
70244;DHT22;57634;51.136;17.024;2023-07-29T01:40:00;19.70;73.10
70244;DHT22;57634;51.136;17.024;2023-07-29T01:43:01;19.70;73.20
70244;DHT22;57634;51.136;17.024;2023-07-29T01:46:03;19.70;73.20
70244;DHT22;57634;51.136;17.024;2023-07-29T01:49:04;19.70;73.20
70244;DHT22;57634;51.136;17.024;2023-07-29T01:52:32;19.70;73.40
70244;DHT22;57634;51.136;17.024;2023-07-29T01:55:33;19.60;73.50
70244;DHT22;57634;51.136;17.024;2023-07-29T01:58:34;19.60;73.70
70244;DHT22;57634;51.136;17.024;2023-07-29T02:01:36;19.60;73.90
70244;DHT22;57634;51.136;17.024;2023-07-29T02:04:37;19.50;74.10
70244;DHT22;57634;51.136;17.024;2023-07-29T02:07:39;19.50;74.30
70244;DHT22;57634;51.136;17.024;2023-07-29T02:10:40;19.50;74.50
70244;DHT22;57634;51.136;17.024;2023-07-29T02:13:43;19.40;74.70
70244;DHT22;57634;51.136;17.024;2023-07-29T02:16:45;19.40;74.90
70244;DHT22;57634;51.136;17.024;2023-07-29T02:19:46;19.30;75.10
70244;DHT22;57634;51.136;17.024;2023-07-29T02:22:48;19.20;75.30
70244;DHT22;57634;51.136;17.024;2023-07-29T02:25:50;19.20;75.60
70244;DHT22;57634;51.136;17.024;2023-07-29T02:28:51;19.10;75.90
70244;DHT22;57634;51.136;17.024;2023-07-29T02:31:53;19.10;76.00
70244;DHT22;57634;51.136;17.024;2023-07-29T02:35:20;19.10;76.30
70244;DHT22;57634;51.136;17.024;2023-07-29T02:38:21;19.00;76.70
70244;DHT22;57634;51.136;17.024;2023-07-29T02:41:22;18.90;77.00
70244;DHT22;57634;51.136;17.024;2023-07-29T02:44:24;18.90;77.30
70244;DHT22;57634;51.136;17.024;2023-07-29T02:47:25;18.90;77.60
70244;DHT22;57634;51.136;17.024;2023-07-29T02:50:27;18.80;77.70
70244;DHT22;57634;51.136;17.024;2023-07-29T02:53:28;18.80;77.90
70244;DHT22;57634;51.136;17.024;2023-07-29T02:56:30;18.80;77.90
70244;DHT22;57634;51.136;17.024;2023-07-29T02:59:34;18.90;77.80
70244;DHT22;57634;51.136;17.024;2023-07-29T03:02:36;18.90;77.70
70244;DHT22;57634;51.136;17.024;2023-07-29T03:05:38;18.90;77.60
70244;DHT22;57634;51.136;17.024;2023-07-29T03:08:39;18.90;77.70
70244;DHT22;57634;51.136;17.024;2023-07-29T03:11:40;18.90;77.60
70244;DHT22;57634;51.136;17.024;2023-07-29T03:15:11;18.90;77.50
70244;DHT22;57634;51.136;17.024;2023-07-29T03:18:13;19.00;77.90
70244;DHT22;57634;51.136;17.024;2023-07-29T03:21:14;19.10;78.20
70244;DHT22;57634;51.136;17.024;2023-07-29T03:24:15;19.10;78.40
70244;DHT22;57634;51.136;17.024;2023-07-29T03:27:17;19.20;78.50
70244;DHT22;57634;51.136;17.024;2023-07-29T03:30:22;19.20;78.50
70244;DHT22;57634;51.136;17.024;2023-07-29T03:33:25;19.30;78.10
70244;DHT22;57634;51.136;17.024;2023-07-29T03:36:27;19.40;77.80
70244;DHT22;57634;51.136;17.024;2023-07-29T03:39:28;19.40;77.30
70244;DHT22;57634;51.136;17.024;2023-07-29T03:42:29;19.60;77.00
70244;DHT22;57634;51.136;17.024;2023-07-29T03:45:31;19.60;76.60
70244;DHT22;57634;51.136;17.024;2023-07-29T03:48:33;19.70;76.10
70244;DHT22;57634;51.136;17.024;2023-07-29T03:51:35;19.80;75.60
70244;DHT22;57634;51.136;17.024;2023-07-29T03:55:03;19.80;75.10
70244;DHT22;57634;51.136;17.024;2023-07-29T03:58:04;19.90;74.70
70244;DHT22;57634;51.136;17.024;2023-07-29T04:01:06;19.90;74.40
70244;DHT22;57634;51.136;17.024;2023-07-29T04:04:08;20.00;74.10
70244;DHT22;57634;51.136;17.024;2023-07-29T04:07:09;20.00;73.90
70244;DHT22;57634;51.136;17.024;2023-07-29T04:10:11;20.00;73.70
70244;DHT22;57634;51.136;17.024;2023-07-29T04:13:12;20.10;73.50
70244;DHT22;57634;51.136;17.024;2023-07-29T04:16:13;20.10;73.30
70244;DHT22;57634;51.136;17.024;2023-07-29T04:19:15;20.20;73.10
70244;DHT22;57634;51.136;17.024;2023-07-29T04:22:16;20.20;72.80
70244;DHT22;57634;51.136;17.024;2023-07-29T04:25:18;20.30;72.50
70244;DHT22;57634;51.136;17.024;2023-07-29T04:28:19;20.40;72.20
70244;DHT22;57634;51.136;17.024;2023-07-29T04:31:22;20.60;71.90
70244;DHT22;57634;51.136;17.024;2023-07-29T04:34:23;20.70;71.40
70244;DHT22;57634;51.136;17.024;2023-07-29T04:37:50;20.90;70.80
70244;DHT22;57634;51.136;17.024;2023-07-29T04:40:52;21.00;70.30
70244;DHT22;57634;51.136;17.024;2023-07-29T04:43:53;21.10;69.80
70244;DHT22;57634;51.136;17.024;2023-07-29T04:46:54;21.20;69.30
70244;DHT22;57634;51.136;17.024;2023-07-29T04:49:56;21.30;68.90
70244;DHT22;57634;51.136;17.024;2023-07-29T04:53:00;21.50;68.70
70244;DHT22;57634;51.136;17.024;2023-07-29T04:56:03;21.90;68.40
70244;DHT22;57634;51.136;17.024;2023-07-29T04:59:04;22.50;66.90
70244;DHT22;57634;51.136;17.024;2023-07-29T05:02:06;22.90;65.10
70244;DHT22;57634;51.136;17.024;2023-07-29T05:05:08;23.20;63.90
70244;DHT22;57634;51.136;17.024;2023-07-29T05:08:09;23.60;63.10
70244;DHT22;57634;51.136;17.024;2023-07-29T05:11:10;24.40;63.30
70244;DHT22;57634;51.136;17.024;2023-07-29T05:14:14;25.70;61.50
70244;DHT22;57634;51.136;17.024;2023-07-29T05:17:42;27.50;58.00
70244;DHT22;57634;51.136;17.024;2023-07-29T05:20:43;29.70;52.20
70244;DHT22;57634;51.136;17.024;2023-07-29T05:23:44;31.80;48.10
70244;DHT22;57634;51.136;17.024;2023-07-29T05:26:47;33.80;43.70
70244;DHT22;57634;51.136;17.024;2023-07-29T05:29:48;35.60;40.00
70244;DHT22;57634;51.136;17.024;2023-07-29T05:32:49;36.70;36.90
70244;DHT22;57634;51.136;17.024;2023-07-29T05:35:51;36.80;35.10
70244;DHT22;57634;51.136;17.024;2023-07-29T05:38:52;37.30;35.00
70244;DHT22;57634;51.136;17.024;2023-07-29T05:41:54;38.00;32.90
70244;DHT22;57634;51.136;17.024;2023-07-29T05:44:55;37.60;31.90
70244;DHT22;57634;51.136;17.024;2023-07-29T05:47:57;36.80;32.30
70244;DHT22;57634;51.136;17.024;2023-07-29T05:50:58;36.00;33.30
70244;DHT22;57634;51.136;17.024;2023-07-29T05:53:59;35.40;34.40
70244;DHT22;57634;51.136;17.024;2023-07-29T05:57:01;36.10;35.00
70244;DHT22;57634;51.136;17.024;2023-07-29T06:00:03;37.50;33.60
70244;DHT22;57634;51.136;17.024;2023-07-29T06:03:30;39.30;31.50
70244;DHT22;57634;51.136;17.024;2023-07-29T06:06:31;41.30;28.50
70244;DHT22;57634;51.136;17.024;2023-07-29T06:09:33;42.80;26.90
70244;DHT22;57634;51.136;17.024;2023-07-29T06:12:34;43.90;25.40
70244;DHT22;57634;51.136;17.024;2023-07-29T06:15:36;44.80;24.80
70244;DHT22;57634;51.136;17.024;2023-07-29T06:18:37;45.50;24.00
70244;DHT22;57634;51.136;17.024;2023-07-29T06:21:39;46.20;23.30
70244;DHT22;57634;51.136;17.024;2023-07-29T06:24:40;47.10;22.60
70244;DHT22;57634;51.136;17.024;2023-07-29T06:27:42;47.90;21.80
70244;DHT22;57634;51.136;17.024;2023-07-29T06:30:43;48.60;21.20
70244;DHT22;57634;51.136;17.024;2023-07-29T06:33:46;49.00;20.70
70244;DHT22;57634;51.136;17.024;2023-07-29T06:36:47;49.40;20.30
70244;DHT22;57634;51.136;17.024;2023-07-29T06:39:49;49.70;20.00
70244;DHT22;57634;51.136;17.024;2023-07-29T06:42:50;50.20;19.70
70244;DHT22;57634;51.136;17.024;2023-07-29T06:46:20;50.60;19.40
70244;DHT22;57634;51.136;17.024;2023-07-29T06:49:21;50.90;18.60
70244;DHT22;57634;51.136;17.024;2023-07-29T06:52:23;51.20;18.20
70244;DHT22;57634;51.136;17.024;2023-07-29T06:55:25;51.40;18.00
70244;DHT22;57634;51.136;17.024;2023-07-29T06:58:27;51.60;17.80
70244;DHT22;57634;51.136;17.024;2023-07-29T07:01:28;51.50;17.70
70244;DHT22;57634;51.136;17.024;2023-07-29T07:04:30;51.70;17.70
70244;DHT22;57634;51.136;17.024;2023-07-29T07:07:31;52.00;17.60
70244;DHT22;57634;51.136;17.024;2023-07-29T07:10:33;52.30;17.40
70244;DHT22;57634;51.136;17.024;2023-07-29T07:13:35;52.50;17.20
70244;DHT22;57634;51.136;17.024;2023-07-29T07:16:36;52.70;17.10
70244;DHT22;57634;51.136;17.024;2023-07-29T07:19:40;52.70;16.90
70244;DHT22;57634;51.136;17.024;2023-07-29T07:22:41;52.70;16.90
70244;DHT22;57634;51.136;17.024;2023-07-29T07:25:43;52.70;16.90
70244;DHT22;57634;51.136;17.024;2023-07-29T07:29:10;52.60;16.90
70244;DHT22;57634;51.136;17.024;2023-07-29T07:32:11;52.60;16.70
70244;DHT22;57634;51.136;17.024;2023-07-29T07:35:13;52.60;16.70
70244;DHT22;57634;51.136;17.024;2023-07-29T07:38:14;52.80;16.50
70244;DHT22;57634;51.136;17.024;2023-07-29T07:41:16;53.10;16.30
70244;DHT22;57634;51.136;17.024;2023-07-29T07:44:18;53.30;16.30
70244;DHT22;57634;51.136;17.024;2023-07-29T07:47:20;53.40;16.20
70244;DHT22;57634;51.136;17.024;2023-07-29T07:50:22;53.20;16.10
70244;DHT22;57634;51.136;17.024;2023-07-29T07:53:25;52.90;16.20
70244;DHT22;57634;51.136;17.024;2023-07-29T07:56:27;52.70;16.30
70244;DHT22;57634;51.136;17.024;2023-07-29T07:59:28;52.30;16.50
70244;DHT22;57634;51.136;17.024;2023-07-29T08:02:30;51.80;16.80
70244;DHT22;57634;51.136;17.024;2023-07-29T08:05:31;51.60;17.00
70244;DHT22;57634;51.136;17.024;2023-07-29T08:09:01;51.50;17.00
70244;DHT22;57634;51.136;17.024;2023-07-29T08:12:03;51.30;17.00
70244;DHT22;57634;51.136;17.024;2023-07-29T08:15:05;50.60;17.00
70244;DHT22;57634;51.136;17.024;2023-07-29T08:18:07;50.20;17.40
70244;DHT22;57634;51.136;17.024;2023-07-29T08:21:08;50.10;17.50
70244;DHT22;57634;51.136;17.024;2023-07-29T08:24:09;50.20;17.40
70244;DHT22;57634;51.136;17.024;2023-07-29T08:27:11;50.30;17.30
70244;DHT22;57634;51.136;17.024;2023-07-29T08:30:13;50.40;17.20
70244;DHT22;57634;51.136;17.024;2023-07-29T08:33:16;50.20;17.20
70244;DHT22;57634;51.136;17.024;2023-07-29T08:36:18;49.90;17.30
70244;DHT22;57634;51.136;17.024;2023-07-29T08:39:19;49.20;17.60
70244;DHT22;57634;51.136;17.024;2023-07-29T08:42:23;48.50;17.90
70244;DHT22;57634;51.136;17.024;2023-07-29T08:45:24;47.90;18.30
70244;DHT22;57634;51.136;17.024;2023-07-29T08:48:41;47.40;18.40
70244;DHT22;57634;51.136;17.024;2023-07-29T08:52:04;46.60;18.90
70244;DHT22;57634;51.136;17.024;2023-07-29T08:55:07;45.60;19.50
70244;DHT22;57634;51.136;17.024;2023-07-29T08:58:10;45.30;20.00
70244;DHT22;57634;51.136;17.024;2023-07-29T09:01:12;45.00;19.90
70244;DHT22;57634;51.136;17.024;2023-07-29T09:04:13;44.20;20.50
70244;DHT22;57634;51.136;17.024;2023-07-29T09:07:15;43.80;20.80
70244;DHT22;57634;51.136;17.024;2023-07-29T09:10:21;43.80;20.90
70244;DHT22;57634;51.136;17.024;2023-07-29T09:13:25;44.00;21.00
70244;DHT22;57634;51.136;17.024;2023-07-29T09:16:29;44.60;20.80
70244;DHT22;57634;51.136;17.024;2023-07-29T09:19:33;45.00;20.30
70244;DHT22;57634;51.136;17.024;2023-07-29T09:23:02;44.60;20.40
70244;DHT22;57634;51.136;17.024;2023-07-29T09:26:04;44.30;20.60
70244;DHT22;57634;51.136;17.024;2023-07-29T09:29:09;43.20;20.80
70244;DHT22;57634;51.136;17.024;2023-07-29T09:32:20;42.00;22.00
70244;DHT22;57634;51.136;17.024;2023-07-29T09:35:22;41.90;22.30
70244;DHT22;57634;51.136;17.024;2023-07-29T09:38:27;42.00;22.40
70244;DHT22;57634;51.136;17.024;2023-07-29T09:41:29;41.80;22.10
70244;DHT22;57634;51.136;17.024;2023-07-29T09:44:36;40.60;22.70
70244;DHT22;57634;51.136;17.024;2023-07-29T09:47:37;39.40;23.80
70244;DHT22;57634;51.136;17.024;2023-07-29T09:51:13;38.50;24.90
70244;DHT22;57634;51.136;17.024;2023-07-29T09:54:16;37.40;25.90
70244;DHT22;57634;51.136;17.024;2023-07-29T09:57:18;36.50;26.80
70244;DHT22;57634;51.136;17.024;2023-07-29T10:00:21;35.60;27.90
70244;DHT22;57634;51.136;17.024;2023-07-29T10:03:23;34.90;28.60
70244;DHT22;57634;51.136;17.024;2023-07-29T10:06:25;34.40;29.30
70244;DHT22;57634;51.136;17.024;2023-07-29T10:09:27;33.80;29.70
70244;DHT22;57634;51.136;17.024;2023-07-29T10:12:34;33.40;30.10
70244;DHT22;57634;51.136;17.024;2023-07-29T10:15:36;32.90;30.70
70244;DHT22;57634;51.136;17.024;2023-07-29T10:19:07;32.50;31.40
70244;DHT22;57634;51.136;17.024;2023-07-29T10:22:10;31.90;32.80
70244;DHT22;57634;51.136;17.024;2023-07-29T10:25:17;31.60;33.70
70244;DHT22;57634;51.136;17.024;2023-07-29T10:28:20;31.30;34.40
70244;DHT22;57634;51.136;17.024;2023-07-29T10:31:25;31.10;34.90
70244;DHT22;57634;51.136;17.024;2023-07-29T10:34:27;31.00;35.50
70244;DHT22;57634;51.136;17.024;2023-07-29T10:37:29;31.20;35.60
70244;DHT22;57634;51.136;17.024;2023-07-29T10:47:27;31.70;35.10
70244;DHT22;57634;51.136;17.024;2023-07-29T10:50:29;31.60;35.00
70244;DHT22;57634;51.136;17.024;2023-07-29T10:53:31;31.60;35.00
70244;DHT22;57634;51.136;17.024;2023-07-29T10:56:34;31.50;35.00
70244;DHT22;57634;51.136;17.024;2023-07-29T10:59:35;31.60;35.10
70244;DHT22;57634;51.136;17.024;2023-07-29T11:02:38;31.70;35.00
70244;DHT22;57634;51.136;17.024;2023-07-29T11:05:47;31.80;34.90
70244;DHT22;57634;51.136;17.024;2023-07-29T11:15:46;31.80;34.60
70244;DHT22;57634;51.136;17.024;2023-07-29T11:18:47;31.90;34.70
70244;DHT22;57634;51.136;17.024;2023-07-29T11:21:49;32.00;34.30
70244;DHT22;57634;51.136;17.024;2023-07-29T11:24:53;32.10;33.80
70244;DHT22;57634;51.136;17.024;2023-07-29T11:27:56;32.00;33.60
70244;DHT22;57634;51.136;17.024;2023-07-29T11:34:37;32.20;33.90
70244;DHT22;57634;51.136;17.024;2023-07-29T11:37:44;32.10;33.80
70244;DHT22;57634;51.136;17.024;2023-07-29T11:40:55;32.10;33.70
70244;DHT22;57634;51.136;17.024;2023-07-29T11:43:57;32.20;33.70
70244;DHT22;57634;51.136;17.024;2023-07-29T11:46:58;32.10;33.70
70244;DHT22;57634;51.136;17.024;2023-07-29T11:49:59;31.90;33.80
70244;DHT22;57634;51.136;17.024;2023-07-29T11:53:32;31.70;34.20
70244;DHT22;57634;51.136;17.024;2023-07-29T11:56:34;31.50;34.50
70244;DHT22;57634;51.136;17.024;2023-07-29T11:59:37;31.30;34.70
70244;DHT22;57634;51.136;17.024;2023-07-29T12:02:40;31.20;34.80
70244;DHT22;57634;51.136;17.024;2023-07-29T12:05:45;31.10;34.80
70244;DHT22;57634;51.136;17.024;2023-07-29T12:08:47;31.10;34.90
70244;DHT22;57634;51.136;17.024;2023-07-29T12:11:49;31.20;34.70
70244;DHT22;57634;51.136;17.024;2023-07-29T12:14:50;31.20;34.50
70244;DHT22;57634;51.136;17.024;2023-07-29T12:17:59;31.10;34.10
70244;DHT22;57634;51.136;17.024;2023-07-29T12:21:02;30.90;34.30
70244;DHT22;57634;51.136;17.024;2023-07-29T12:24:04;30.90;34.50
70244;DHT22;57634;51.136;17.024;2023-07-29T12:27:32;30.80;34.10
70244;DHT22;57634;51.136;17.024;2023-07-29T12:30:34;30.80;33.90
70244;DHT22;57634;51.136;17.024;2023-07-29T12:33:36;30.60;34.00
70244;DHT22;57634;51.136;17.024;2023-07-29T12:36:48;30.40;34.30
70244;DHT22;57634;51.136;17.024;2023-07-29T12:39:50;30.20;34.60
70244;DHT22;57634;51.136;17.024;2023-07-29T12:42:53;30.10;35.00
70244;DHT22;57634;51.136;17.024;2023-07-29T12:45:54;30.00;35.20
70244;DHT22;57634;51.136;17.024;2023-07-29T12:48:57;29.90;35.20
70244;DHT22;57634;51.136;17.024;2023-07-29T12:51:59;29.90;35.40
70244;DHT22;57634;51.136;17.024;2023-07-29T12:55:01;29.80;35.70
70244;DHT22;57634;51.136;17.024;2023-07-29T12:58:03;29.80;35.90
70244;DHT22;57634;51.136;17.024;2023-07-29T13:01:31;29.90;36.00
70244;DHT22;57634;51.136;17.024;2023-07-29T13:04:33;29.90;36.00
70244;DHT22;57634;51.136;17.024;2023-07-29T13:07:35;30.00;36.30
70244;DHT22;57634;51.136;17.024;2023-07-29T13:10:36;30.10;36.20
70244;DHT22;57634;51.136;17.024;2023-07-29T13:13:38;30.10;36.20
70244;DHT22;57634;51.136;17.024;2023-07-29T13:16:40;30.10;36.10
70244;DHT22;57634;51.136;17.024;2023-07-29T13:19:41;30.10;36.00
70244;DHT22;57634;51.136;17.024;2023-07-29T13:22:42;30.10;36.20
70244;DHT22;57634;51.136;17.024;2023-07-29T13:25:43;30.20;36.10
70244;DHT22;57634;51.136;17.024;2023-07-29T13:28:45;30.20;36.30
70244;DHT22;57634;51.136;17.024;2023-07-29T13:31:46;30.20;36.30
70244;DHT22;57634;51.136;17.024;2023-07-29T13:34:47;30.20;36.20
70244;DHT22;57634;51.136;17.024;2023-07-29T13:37:49;30.20;36.30
70244;DHT22;57634;51.136;17.024;2023-07-29T13:40:51;30.20;36.40
70244;DHT22;57634;51.136;17.024;2023-07-29T13:44:19;30.20;36.50
70244;DHT22;57634;51.136;17.024;2023-07-29T13:47:20;30.20;36.50
70244;DHT22;57634;51.136;17.024;2023-07-29T13:50:22;30.30;36.60
70244;DHT22;57634;51.136;17.024;2023-07-29T13:53:24;30.30;36.70
70244;DHT22;57634;51.136;17.024;2023-07-29T13:56:26;30.40;36.70
70244;DHT22;57634;51.136;17.024;2023-07-29T13:59:28;30.50;36.30
70244;DHT22;57634;51.136;17.024;2023-07-29T14:02:30;30.40;36.10
70244;DHT22;57634;51.136;17.024;2023-07-29T14:05:32;30.40;36.10
70244;DHT22;57634;51.136;17.024;2023-07-29T14:08:34;30.40;36.20
70244;DHT22;57634;51.136;17.024;2023-07-29T14:11:36;30.30;36.30
70244;DHT22;57634;51.136;17.024;2023-07-29T14:14:38;30.20;36.50
70244;DHT22;57634;51.136;17.024;2023-07-29T14:17:40;30.10;36.80
70244;DHT22;57634;51.136;17.024;2023-07-29T14:20:41;30.00;36.80
70244;DHT22;57634;51.136;17.024;2023-07-29T14:24:09;29.90;37.20
70244;DHT22;57634;51.136;17.024;2023-07-29T14:27:11;29.80;37.60
70244;DHT22;57634;51.136;17.024;2023-07-29T14:30:12;29.60;37.90
70244;DHT22;57634;51.136;17.024;2023-07-29T14:33:13;29.60;38.10
70244;DHT22;57634;51.136;17.024;2023-07-29T14:36:16;29.60;38.20
70244;DHT22;57634;51.136;17.024;2023-07-29T14:39:17;29.50;38.20
70244;DHT22;57634;51.136;17.024;2023-07-29T14:42:19;29.50;38.00
70244;DHT22;57634;51.136;17.024;2023-07-29T14:45:20;29.40;37.90
70244;DHT22;57634;51.136;17.024;2023-07-29T14:48:22;29.40;38.10
70244;DHT22;57634;51.136;17.024;2023-07-29T14:51:24;29.30;38.30
70244;DHT22;57634;51.136;17.024;2023-07-29T14:54:25;29.20;38.40
70244;DHT22;57634;51.136;17.024;2023-07-29T14:57:27;29.10;38.80
70244;DHT22;57634;51.136;17.024;2023-07-29T15:00:28;29.00;38.90
70244;DHT22;57634;51.136;17.024;2023-07-29T15:03:30;28.90;39.00
70244;DHT22;57634;51.136;17.024;2023-07-29T15:06:58;28.90;39.30
70244;DHT22;57634;51.136;17.024;2023-07-29T15:09:59;28.80;39.40
70244;DHT22;57634;51.136;17.024;2023-07-29T15:13:02;28.70;39.60
70244;DHT22;57634;51.136;17.024;2023-07-29T15:16:04;28.60;39.90
70244;DHT22;57634;51.136;17.024;2023-07-29T15:19:06;28.60;40.00
70244;DHT22;57634;51.136;17.024;2023-07-29T15:22:07;28.60;40.20
70244;DHT22;57634;51.136;17.024;2023-07-29T15:25:09;28.60;40.30
70244;DHT22;57634;51.136;17.024;2023-07-29T15:28:11;28.60;40.30
70244;DHT22;57634;51.136;17.024;2023-07-29T15:31:14;28.60;40.50
70244;DHT22;57634;51.136;17.024;2023-07-29T15:34:16;28.50;40.50
70244;DHT22;57634;51.136;17.024;2023-07-29T15:37:17;28.60;40.80
70244;DHT22;57634;51.136;17.024;2023-07-29T15:40:19;28.60;40.70
70244;DHT22;57634;51.136;17.024;2023-07-29T15:43:21;28.50;40.60
70244;DHT22;57634;51.136;17.024;2023-07-29T15:46:48;28.50;40.90
70244;DHT22;57634;51.136;17.024;2023-07-29T15:49:52;28.40;41.30
70244;DHT22;57634;51.136;17.024;2023-07-29T15:52:54;28.30;41.60
70244;DHT22;57634;51.136;17.024;2023-07-29T15:55:55;28.20;41.90
70244;DHT22;57634;51.136;17.024;2023-07-29T15:58:57;28.10;42.20
70244;DHT22;57634;51.136;17.024;2023-07-29T16:01:59;28.00;42.60
70244;DHT22;57634;51.136;17.024;2023-07-29T16:05:01;27.80;42.90
70244;DHT22;57634;51.136;17.024;2023-07-29T16:08:02;27.70;43.30
70244;DHT22;57634;51.136;17.024;2023-07-29T16:11:04;27.50;43.80
70244;DHT22;57634;51.136;17.024;2023-07-29T16:14:06;27.40;44.20
70244;DHT22;57634;51.136;17.024;2023-07-29T16:17:07;27.30;44.50
70244;DHT22;57634;51.136;17.024;2023-07-29T16:20:09;27.30;45.00
70244;DHT22;57634;51.136;17.024;2023-07-29T16:23:11;27.20;45.20
70244;DHT22;57634;51.136;17.024;2023-07-29T16:26:44;27.30;45.60
70244;DHT22;57634;51.136;17.024;2023-07-29T16:29:45;27.30;45.60
70244;DHT22;57634;51.136;17.024;2023-07-29T16:32:46;27.40;45.30
70244;DHT22;57634;51.136;17.024;2023-07-29T16:35:48;27.40;44.80
70244;DHT22;57634;51.136;17.024;2023-07-29T16:38:49;27.40;44.60
70244;DHT22;57634;51.136;17.024;2023-07-29T16:41:51;27.40;44.40
70244;DHT22;57634;51.136;17.024;2023-07-29T16:44:52;27.40;44.40
70244;DHT22;57634;51.136;17.024;2023-07-29T16:47:54;27.30;44.30
70244;DHT22;57634;51.136;17.024;2023-07-29T16:50:55;27.20;44.50
70244;DHT22;57634;51.136;17.024;2023-07-29T16:55:16;27.10;44.80
70244;DHT22;57634;51.136;17.024;2023-07-29T16:58:18;27.00;45.00
70244;DHT22;57634;51.136;17.024;2023-07-29T17:01:19;26.80;45.10
70244;DHT22;57634;51.136;17.024;2023-07-29T17:04:21;26.70;45.10
70244;DHT22;57634;51.136;17.024;2023-07-29T17:07:22;26.60;45.30
70244;DHT22;57634;51.136;17.024;2023-07-29T17:10:24;26.50;45.50
70244;DHT22;57634;51.136;17.024;2023-07-29T17:13:26;26.40;45.60
70244;DHT22;57634;51.136;17.024;2023-07-29T17:16:28;26.30;45.80
70244;DHT22;57634;51.136;17.024;2023-07-29T17:19:29;26.20;46.10
70244;DHT22;57634;51.136;17.024;2023-07-29T17:22:30;26.10;46.30
70244;DHT22;57634;51.136;17.024;2023-07-29T17:25:38;26.10;46.50
70244;DHT22;57634;51.136;17.024;2023-07-29T17:28:39;26.00;46.70
70244;DHT22;57634;51.136;17.024;2023-07-29T17:32:06;26.00;46.90
70244;DHT22;57634;51.136;17.024;2023-07-29T17:35:08;26.10;47.30
70244;DHT22;57634;51.136;17.024;2023-07-29T17:38:09;26.10;47.40
70244;DHT22;57634;51.136;17.024;2023-07-29T17:41:11;26.10;47.50
70244;DHT22;57634;51.136;17.024;2023-07-29T17:44:12;26.10;47.50
70244;DHT22;57634;51.136;17.024;2023-07-29T17:47:13;26.10;47.50
70244;DHT22;57634;51.136;17.024;2023-07-29T17:50:19;26.10;47.50
70244;DHT22;57634;51.136;17.024;2023-07-29T17:53:25;26.10;47.50
70244;DHT22;57634;51.136;17.024;2023-07-29T17:56:26;26.00;47.50
70244;DHT22;57634;51.136;17.024;2023-07-29T17:59:29;26.00;47.60
70244;DHT22;57634;51.136;17.024;2023-07-29T18:02:33;25.90;47.80
70244;DHT22;57634;51.136;17.024;2023-07-29T18:09:15;25.70;48.50
70244;DHT22;57634;51.136;17.024;2023-07-29T18:12:17;25.60;48.90
70244;DHT22;57634;51.136;17.024;2023-07-29T18:15:19;25.50;49.10
70244;DHT22;57634;51.136;17.024;2023-07-29T18:18:20;25.40;49.50
70244;DHT22;57634;51.136;17.024;2023-07-29T18:21:22;25.30;49.70
70244;DHT22;57634;51.136;17.024;2023-07-29T18:24:23;25.30;50.00
70244;DHT22;57634;51.136;17.024;2023-07-29T18:27:25;25.20;50.20
70244;DHT22;57634;51.136;17.024;2023-07-29T18:30:27;25.20;50.40
70244;DHT22;57634;51.136;17.024;2023-07-29T18:33:28;25.10;50.40
70244;DHT22;57634;51.136;17.024;2023-07-29T18:36:30;25.10;50.60
70244;DHT22;57634;51.136;17.024;2023-07-29T18:39:31;25.10;50.60
70244;DHT22;57634;51.136;17.024;2023-07-29T18:42:59;25.10;50.60
70244;DHT22;57634;51.136;17.024;2023-07-29T18:46:01;25.00;50.70
70244;DHT22;57634;51.136;17.024;2023-07-29T18:49:02;25.00;50.80
70244;DHT22;57634;51.136;17.024;2023-07-29T18:52:07;25.00;50.90
70244;DHT22;57634;51.136;17.024;2023-07-29T18:55:09;24.90;50.80
70244;DHT22;57634;51.136;17.024;2023-07-29T18:58:10;24.80;50.80
70244;DHT22;57634;51.136;17.024;2023-07-29T19:01:12;24.80;50.80
70244;DHT22;57634;51.136;17.024;2023-07-29T19:04:14;24.70;50.80
70244;DHT22;57634;51.136;17.024;2023-07-29T19:07:16;24.70;50.90
70244;DHT22;57634;51.136;17.024;2023-07-29T19:10:20;24.60;50.90
70244;DHT22;57634;51.136;17.024;2023-07-29T19:13:22;24.60;50.90
70244;DHT22;57634;51.136;17.024;2023-07-29T19:16:23;24.50;51.00
70244;DHT22;57634;51.136;17.024;2023-07-29T19:19:25;24.50;51.10
70244;DHT22;57634;51.136;17.024;2023-07-29T19:22:26;24.50;51.20
70244;DHT22;57634;51.136;17.024;2023-07-29T19:25:53;24.50;51.30
70244;DHT22;57634;51.136;17.024;2023-07-29T19:28:54;24.50;51.70